sensor_id;sensor_type;location;lat;lon;timestamp;P1;durP1;ratioP1;P2;durP2;ratioP2
68593;SDS011;55563;52.416;13.548;2023-04-25T00:00:51;2.75;;;1.20;;
68593;SDS011;55563;52.416;13.548;2023-04-25T00:02:59;1.92;;;1.33;;
68593;SDS011;55563;52.416;13.548;2023-04-25T00:05:20;1.83;;;1.33;;
68593;SDS011;55563;52.416;13.548;2023-04-25T00:09:48;1.30;;;1.20;;
68593;SDS011;55563;52.416;13.548;2023-04-25T00:11:55;1.45;;;1.20;;
68593;SDS011;55563;52.416;13.548;2023-04-25T00:14:23;1.30;;;1.15;;
68593;SDS011;55563;52.416;13.548;2023-04-25T00:16:30;1.45;;;1.10;;
68593;SDS011;55563;52.416;13.548;2023-04-25T00:18:51;1.98;;;1.33;;
68593;SDS011;55563;52.416;13.548;2023-04-25T00:21:00;1.88;;;1.10;;
68593;SDS011;55563;52.416;13.548;2023-04-25T00:23:28;1.13;;;1.02;;
68593;SDS011;55563;52.416;13.548;2023-04-25T00:25:57;1.50;;;1.10;;
68593;SDS011;55563;52.416;13.548;2023-04-25T00:28:04;1.25;;;0.93;;
68593;SDS011;55563;52.416;13.548;2023-04-25T00:30:25;1.73;;;1.20;;
68593;SDS011;55563;52.416;13.548;2023-04-25T00:32:32;1.20;;;0.93;;
68593;SDS011;55563;52.416;13.548;2023-04-25T00:34:53;3.13;;;1.25;;
68593;SDS011;55563;52.416;13.548;2023-04-25T00:37:00;2.38;;;1.08;;
68593;SDS011;55563;52.416;13.548;2023-04-25T00:39:21;3.58;;;1.30;;
68593;SDS011;55563;52.416;13.548;2023-04-25T00:43:49;0.82;;;0.82;;
68593;SDS011;55563;52.416;13.548;2023-04-25T00:45:57;1.60;;;1.17;;
68593;SDS011;55563;52.416;13.548;2023-04-25T00:48:21;3.10;;;1.25;;
68593;SDS011;55563;52.416;13.548;2023-04-25T00:50:29;3.25;;;1.40;;
68593;SDS011;55563;52.416;13.548;2023-04-25T00:52:57;2.22;;;1.38;;
68593;SDS011;55563;52.416;13.548;2023-04-25T00:57:33;1.85;;;1.05;;
68593;SDS011;55563;52.416;13.548;2023-04-25T00:59:42;2.15;;;1.23;;
68593;SDS011;55563;52.416;13.548;2023-04-25T01:02:13;1.30;;;0.90;;
68593;SDS011;55563;52.416;13.548;2023-04-25T01:04:20;1.60;;;1.10;;
68593;SDS011;55563;52.416;13.548;2023-04-25T01:06:42;4.03;;;1.33;;
68593;SDS011;55563;52.416;13.548;2023-04-25T01:09:10;1.83;;;1.40;;
68593;SDS011;55563;52.416;13.548;2023-04-25T01:11:18;3.80;;;1.25;;
68593;SDS011;55563;52.416;13.548;2023-04-25T01:13:47;2.00;;;1.40;;
68593;SDS011;55563;52.416;13.548;2023-04-25T01:18:15;1.73;;;1.15;;
68593;SDS011;55563;52.416;13.548;2023-04-25T01:20:22;2.63;;;1.30;;
68593;SDS011;55563;52.416;13.548;2023-04-25T01:22:44;1.48;;;1.00;;
68593;SDS011;55563;52.416;13.548;2023-04-25T01:27:12;3.72;;;1.20;;
68593;SDS011;55563;52.416;13.548;2023-04-25T01:29:19;3.35;;;1.08;;
68593;SDS011;55563;52.416;13.548;2023-04-25T01:31:40;2.28;;;1.30;;
68593;SDS011;55563;52.416;13.548;2023-04-25T01:33:48;2.63;;;1.30;;
68593;SDS011;55563;52.416;13.548;2023-04-25T01:36:16;3.20;;;1.42;;
68593;SDS011;55563;52.416;13.548;2023-04-25T01:38:45;2.60;;;1.50;;
68593;SDS011;55563;52.416;13.548;2023-04-25T01:40:56;2.72;;;1.52;;
68593;SDS011;55563;52.416;13.548;2023-04-25T01:43:17;2.92;;;1.30;;
68593;SDS011;55563;52.416;13.548;2023-04-25T01:45:24;1.13;;;1.00;;
68593;SDS011;55563;52.416;13.548;2023-04-25T01:47:45;4.00;;;1.33;;
68593;SDS011;55563;52.416;13.548;2023-04-25T01:49:56;2.60;;;1.40;;
68593;SDS011;55563;52.416;13.548;2023-04-25T01:52:18;2.55;;;1.20;;
68593;SDS011;55563;52.416;13.548;2023-04-25T01:56:49;2.17;;;1.42;;
68593;SDS011;55563;52.416;13.548;2023-04-25T01:58:58;1.83;;;1.20;;
68593;SDS011;55563;52.416;13.548;2023-04-25T02:01:35;2.55;;;1.15;;
68593;SDS011;55563;52.416;13.548;2023-04-25T02:03:54;1.67;;;1.27;;
68593;SDS011;55563;52.416;13.548;2023-04-25T02:06:21;2.08;;;1.42;;
68593;SDS011;55563;52.416;13.548;2023-04-25T02:08:31;1.92;;;1.33;;
68593;SDS011;55563;52.416;13.548;2023-04-25T02:10:52;2.83;;;1.65;;
68593;SDS011;55563;52.416;13.548;2023-04-25T02:13:12;3.53;;;1.35;;
68593;SDS011;55563;52.416;13.548;2023-04-25T02:15:37;2.00;;;1.55;;
68593;SDS011;55563;52.416;13.548;2023-04-25T02:17:55;3.42;;;1.50;;
68593;SDS011;55563;52.416;13.548;2023-04-25T02:22:30;2.17;;;1.50;;
68593;SDS011;55563;52.416;13.548;2023-04-25T02:24:47;1.92;;;1.50;;
68593;SDS011;55563;52.416;13.548;2023-04-25T02:27:01;2.80;;;1.58;;
68593;SDS011;55563;52.416;13.548;2023-04-25T02:29:16;1.98;;;1.50;;
68593;SDS011;55563;52.416;13.548;2023-04-25T02:31:30;3.30;;;1.38;;
68593;SDS011;55563;52.416;13.548;2023-04-25T02:36:05;1.83;;;1.42;;
68593;SDS011;55563;52.416;13.548;2023-04-25T02:38:22;2.58;;;1.80;;
68593;SDS011;55563;52.416;13.548;2023-04-25T02:40:37;3.13;;;1.70;;
68593;SDS011;55563;52.416;13.548;2023-04-25T02:42:51;3.63;;;1.80;;
68593;SDS011;55563;52.416;13.548;2023-04-25T02:45:07;2.42;;;1.60;;
68593;SDS011;55563;52.416;13.548;2023-04-25T02:47:22;3.13;;;1.67;;
68593;SDS011;55563;52.416;13.548;2023-04-25T02:49:36;2.50;;;1.60;;
68593;SDS011;55563;52.416;13.548;2023-04-25T02:51:57;3.03;;;1.60;;
68593;SDS011;55563;52.416;13.548;2023-04-25T02:54:04;3.10;;;1.70;;
68593;SDS011;55563;52.416;13.548;2023-04-25T02:56:28;2.88;;;1.52;;
68593;SDS011;55563;52.416;13.548;2023-04-25T02:58:43;2.35;;;1.75;;
68593;SDS011;55563;52.416;13.548;2023-04-25T03:01:05;2.65;;;1.63;;
68593;SDS011;55563;52.416;13.548;2023-04-25T03:03:13;3.33;;;1.70;;
68593;SDS011;55563;52.416;13.548;2023-04-25T03:05:35;3.85;;;1.90;;
68593;SDS011;55563;52.416;13.548;2023-04-25T03:07:44;3.13;;;1.80;;
68593;SDS011;55563;52.416;13.548;2023-04-25T03:10:06;2.90;;;2.05;;
68593;SDS011;55563;52.416;13.548;2023-04-25T03:12:21;2.00;;;1.52;;
68593;SDS011;55563;52.416;13.548;2023-04-25T03:14:49;2.88;;;1.70;;
68593;SDS011;55563;52.416;13.548;2023-04-25T03:17:17;3.92;;;1.70;;
68593;SDS011;55563;52.416;13.548;2023-04-25T03:19:46;2.25;;;1.58;;
68593;SDS011;55563;52.416;13.548;2023-04-25T03:21:56;3.42;;;1.95;;
68593;SDS011;55563;52.416;13.548;2023-04-25T03:24:16;3.33;;;1.67;;
68593;SDS011;55563;52.416;13.548;2023-04-25T03:26:23;5.68;;;1.90;;
68593;SDS011;55563;52.416;13.548;2023-04-25T03:28:51;3.03;;;1.63;;
68593;SDS011;55563;52.416;13.548;2023-04-25T03:30:58;3.08;;;1.75;;
68593;SDS011;55563;52.416;13.548;2023-04-25T03:33:19;3.92;;;1.80;;
68593;SDS011;55563;52.416;13.548;2023-04-25T03:35:26;3.30;;;1.92;;
68593;SDS011;55563;52.416;13.548;2023-04-25T03:37:47;4.47;;;1.73;;
68593;SDS011;55563;52.416;13.548;2023-04-25T03:40:00;2.83;;;1.63;;
68593;SDS011;55563;52.416;13.548;2023-04-25T03:42:47;3.72;;;1.70;;
68593;SDS011;55563;52.416;13.548;2023-04-25T03:44:54;2.55;;;1.73;;
68593;SDS011;55563;52.416;13.548;2023-04-25T03:47:15;2.78;;;1.95;;
68593;SDS011;55563;52.416;13.548;2023-04-25T03:49:24;3.55;;;1.80;;
68593;SDS011;55563;52.416;13.548;2023-04-25T03:51:48;2.88;;;1.88;;
68593;SDS011;55563;52.416;13.548;2023-04-25T03:53:57;2.83;;;1.90;;
68593;SDS011;55563;52.416;13.548;2023-04-25T03:56:32;3.25;;;1.70;;
68593;SDS011;55563;52.416;13.548;2023-04-25T03:58:57;4.13;;;1.80;;
68593;SDS011;55563;52.416;13.548;2023-04-25T04:01:12;3.55;;;1.77;;
68593;SDS011;55563;52.416;13.548;2023-04-25T04:03:26;2.40;;;1.52;;
68593;SDS011;55563;52.416;13.548;2023-04-25T04:05:40;3.55;;;1.85;;
68593;SDS011;55563;52.416;13.548;2023-04-25T04:07:55;3.25;;;1.80;;
68593;SDS011;55563;52.416;13.548;2023-04-25T04:10:06;3.45;;;1.98;;
68593;SDS011;55563;52.416;13.548;2023-04-25T04:12:34;3.35;;;1.80;;
68593;SDS011;55563;52.416;13.548;2023-04-25T04:15:03;3.60;;;1.70;;
68593;SDS011;55563;52.416;13.548;2023-04-25T04:17:12;3.22;;;1.70;;
68593;SDS011;55563;52.416;13.548;2023-04-25T04:19:33;2.30;;;1.70;;
68593;SDS011;55563;52.416;13.548;2023-04-25T04:21:45;4.18;;;1.85;;
68593;SDS011;55563;52.416;13.548;2023-04-25T04:24:06;3.15;;;1.80;;
68593;SDS011;55563;52.416;13.548;2023-04-25T04:26:27;3.65;;;2.00;;
68593;SDS011;55563;52.416;13.548;2023-04-25T04:29:06;3.42;;;1.80;;
68593;SDS011;55563;52.416;13.548;2023-04-25T04:31:20;4.32;;;1.63;;
68593;SDS011;55563;52.416;13.548;2023-04-25T04:33:41;3.22;;;1.85;;
68593;SDS011;55563;52.416;13.548;2023-04-25T04:35:50;3.58;;;2.22;;
68593;SDS011;55563;52.416;13.548;2023-04-25T04:38:19;4.15;;;1.98;;
68593;SDS011;55563;52.416;13.548;2023-04-25T04:40:42;2.90;;;1.70;;
68593;SDS011;55563;52.416;13.548;2023-04-25T04:43:06;3.15;;;1.70;;
68593;SDS011;55563;52.416;13.548;2023-04-25T04:45:39;3.17;;;1.90;;
68593;SDS011;55563;52.416;13.548;2023-04-25T04:48:13;3.03;;;1.73;;
68593;SDS011;55563;52.416;13.548;2023-04-25T04:50:56;3.63;;;1.90;;
68593;SDS011;55563;52.416;13.548;2023-04-25T04:53:38;4.07;;;2.10;;
68593;SDS011;55563;52.416;13.548;2023-04-25T04:56:03;3.40;;;1.80;;
68593;SDS011;55563;52.416;13.548;2023-04-25T04:58:38;4.28;;;1.88;;
68593;SDS011;55563;52.416;13.548;2023-04-25T05:01:03;4.07;;;1.92;;
68593;SDS011;55563;52.416;13.548;2023-04-25T05:03:29;3.03;;;1.95;;
68593;SDS011;55563;52.416;13.548;2023-04-25T05:06:03;3.67;;;1.92;;
68593;SDS011;55563;52.416;13.548;2023-04-25T05:08:27;3.70;;;2.22;;
68593;SDS011;55563;52.416;13.548;2023-04-25T05:10:55;4.00;;;1.80;;
68593;SDS011;55563;52.416;13.548;2023-04-25T05:13:29;2.65;;;1.85;;
68593;SDS011;55563;52.416;13.548;2023-04-25T05:15:59;4.43;;;2.50;;
68593;SDS011;55563;52.416;13.548;2023-04-25T05:18:39;3.70;;;1.92;;
68593;SDS011;55563;52.416;13.548;2023-04-25T05:21:06;3.72;;;2.10;;
68593;SDS011;55563;52.416;13.548;2023-04-25T05:23:28;3.42;;;2.40;;
68593;SDS011;55563;52.416;13.548;2023-04-25T05:25:52;3.85;;;2.05;;
68593;SDS011;55563;52.416;13.548;2023-04-25T05:31:26;3.45;;;1.92;;
68593;SDS011;55563;52.416;13.548;2023-04-25T05:33:57;4.35;;;1.92;;
68593;SDS011;55563;52.416;13.548;2023-04-25T05:36:45;4.55;;;2.15;;
68593;SDS011;55563;52.416;13.548;2023-04-25T05:39:15;3.33;;;1.80;;
68593;SDS011;55563;52.416;13.548;2023-04-25T05:41:55;4.93;;;1.83;;
68593;SDS011;55563;52.416;13.548;2023-04-25T05:44:30;4.53;;;2.08;;
68593;SDS011;55563;52.416;13.548;2023-04-25T05:47:06;4.13;;;2.10;;
68593;SDS011;55563;52.416;13.548;2023-04-25T05:49:46;4.50;;;2.22;;
68593;SDS011;55563;52.416;13.548;2023-04-25T05:52:31;3.97;;;2.33;;
68593;SDS011;55563;52.416;13.548;2023-04-25T05:54:47;4.13;;;2.05;;
68593;SDS011;55563;52.416;13.548;2023-04-25T05:57:08;4.30;;;2.22;;
68593;SDS011;55563;52.416;13.548;2023-04-25T05:59:16;4.13;;;2.05;;
68593;SDS011;55563;52.416;13.548;2023-04-25T06:01:37;3.08;;;1.77;;
68593;SDS011;55563;52.416;13.548;2023-04-25T06:03:45;4.50;;;2.20;;
68593;SDS011;55563;52.416;13.548;2023-04-25T06:06:06;3.33;;;2.03;;
68593;SDS011;55563;52.416;13.548;2023-04-25T06:08:14;3.00;;;1.95;;
68593;SDS011;55563;52.416;13.548;2023-04-25T06:10:42;2.47;;;1.42;;
68593;SDS011;55563;52.416;13.548;2023-04-25T06:13:10;7.78;;;1.95;;
68593;SDS011;55563;52.416;13.548;2023-04-25T06:15:24;3.38;;;2.30;;
68593;SDS011;55563;52.416;13.548;2023-04-25T06:17:46;5.28;;;2.15;;
68593;SDS011;55563;52.416;13.548;2023-04-25T06:19:53;4.07;;;2.10;;
68593;SDS011;55563;52.416;13.548;2023-04-25T06:24:21;4.38;;;2.72;;
68593;SDS011;55563;52.416;13.548;2023-04-25T06:26:44;4.15;;;2.47;;
68593;SDS011;55563;52.416;13.548;2023-04-25T06:28:52;4.85;;;2.20;;
68593;SDS011;55563;52.416;13.548;2023-04-25T06:31:13;4.97;;;2.28;;
68593;SDS011;55563;52.416;13.548;2023-04-25T06:33:28;3.17;;;2.25;;
68593;SDS011;55563;52.416;13.548;2023-04-25T06:38:02;4.20;;;2.25;;
68593;SDS011;55563;52.416;13.548;2023-04-25T06:40:27;4.00;;;2.10;;
68593;SDS011;55563;52.416;13.548;2023-04-25T06:42:41;4.40;;;2.25;;
68593;SDS011;55563;52.416;13.548;2023-04-25T06:45:22;2.92;;;1.95;;
68593;SDS011;55563;52.416;13.548;2023-04-25T06:47:38;4.72;;;2.40;;
68593;SDS011;55563;52.416;13.548;2023-04-25T06:49:51;3.92;;;2.38;;
68593;SDS011;55563;52.416;13.548;2023-04-25T06:52:05;4.45;;;2.53;;
68593;SDS011;55563;52.416;13.548;2023-04-25T06:54:29;3.92;;;2.45;;
68593;SDS011;55563;52.416;13.548;2023-04-25T06:56:44;3.63;;;2.13;;
68593;SDS011;55563;52.416;13.548;2023-04-25T06:59:08;2.35;;;1.63;;
68593;SDS011;55563;52.416;13.548;2023-04-25T07:01:37;3.15;;;1.88;;
68593;SDS011;55563;52.416;13.548;2023-04-25T07:04:01;3.72;;;2.00;;
68593;SDS011;55563;52.416;13.548;2023-04-25T07:06:19;4.03;;;2.20;;
68593;SDS011;55563;52.416;13.548;2023-04-25T07:08:34;4.25;;;2.05;;
68593;SDS011;55563;52.416;13.548;2023-04-25T07:10:48;3.13;;;1.75;;
68593;SDS011;55563;52.416;13.548;2023-04-25T07:13:02;4.72;;;2.80;;
68593;SDS011;55563;52.416;13.548;2023-04-25T07:15:16;3.42;;;2.22;;
68593;SDS011;55563;52.416;13.548;2023-04-25T07:17:26;4.32;;;1.65;;
68593;SDS011;55563;52.416;13.548;2023-04-25T07:22:01;3.55;;;2.08;;
68593;SDS011;55563;52.416;13.548;2023-04-25T07:24:17;2.85;;;2.10;;
68593;SDS011;55563;52.416;13.548;2023-04-25T07:26:32;5.10;;;2.35;;
68593;SDS011;55563;52.416;13.548;2023-04-25T07:29:01;3.22;;;2.03;;
68593;SDS011;55563;52.416;13.548;2023-04-25T07:31:08;3.80;;;2.15;;
68593;SDS011;55563;52.416;13.548;2023-04-25T07:33:30;3.42;;;2.13;;
68593;SDS011;55563;52.416;13.548;2023-04-25T07:35:37;4.07;;;2.20;;
68593;SDS011;55563;52.416;13.548;2023-04-25T07:37:58;2.67;;;1.52;;
68593;SDS011;55563;52.416;13.548;2023-04-25T07:40:06;1.92;;;1.60;;
68593;SDS011;55563;52.416;13.548;2023-04-25T07:42:37;2.60;;;1.80;;
68593;SDS011;55563;52.416;13.548;2023-04-25T07:44:45;2.40;;;1.65;;
68593;SDS011;55563;52.416;13.548;2023-04-25T07:49:13;3.17;;;1.80;;
68593;SDS011;55563;52.416;13.548;2023-04-25T07:51:34;2.70;;;1.67;;
68593;SDS011;55563;52.416;13.548;2023-04-25T07:53:46;2.90;;;1.98;;
68593;SDS011;55563;52.416;13.548;2023-04-25T07:55:55;2.70;;;1.80;;
68593;SDS011;55563;52.416;13.548;2023-04-25T07:58:18;4.57;;;1.63;;
68593;SDS011;55563;52.416;13.548;2023-04-25T08:00:29;1.75;;;1.23;;
68593;SDS011;55563;52.416;13.548;2023-04-25T08:03:10;3.40;;;1.98;;
68593;SDS011;55563;52.416;13.548;2023-04-25T08:05:24;4.93;;;2.17;;
68593;SDS011;55563;52.416;13.548;2023-04-25T08:07:43;2.60;;;1.58;;
68593;SDS011;55563;52.416;13.548;2023-04-25T08:09:57;3.47;;;1.60;;
68593;SDS011;55563;52.416;13.548;2023-04-25T08:12:13;4.60;;;2.00;;
68593;SDS011;55563;52.416;13.548;2023-04-25T08:14:28;3.25;;;2.08;;
68593;SDS011;55563;52.416;13.548;2023-04-25T08:16:44;3.40;;;1.73;;
68593;SDS011;55563;52.416;13.548;2023-04-25T08:18:59;4.03;;;1.85;;
68593;SDS011;55563;52.416;13.548;2023-04-25T08:23:27;4.05;;;1.75;;
68593;SDS011;55563;52.416;13.548;2023-04-25T08:25:52;3.78;;;2.03;;
68593;SDS011;55563;52.416;13.548;2023-04-25T08:28:08;3.40;;;2.17;;
68593;SDS011;55563;52.416;13.548;2023-04-25T08:30:23;5.43;;;2.20;;
68593;SDS011;55563;52.416;13.548;2023-04-25T08:32:37;5.60;;;2.13;;
68593;SDS011;55563;52.416;13.548;2023-04-25T08:35:03;3.85;;;1.75;;
68593;SDS011;55563;52.416;13.548;2023-04-25T08:37:17;5.72;;;1.98;;
68593;SDS011;55563;52.416;13.548;2023-04-25T08:39:39;4.47;;;2.50;;
68593;SDS011;55563;52.416;13.548;2023-04-25T08:42:07;9.05;;;4.85;;
68593;SDS011;55563;52.416;13.548;2023-04-25T08:44:20;5.22;;;1.90;;
68593;SDS011;55563;52.416;13.548;2023-04-25T08:46:37;4.68;;;2.03;;
68593;SDS011;55563;52.416;13.548;2023-04-25T08:49:08;9.10;;;2.45;;
68593;SDS011;55563;52.416;13.548;2023-04-25T08:51:23;5.78;;;2.22;;
68593;SDS011;55563;52.416;13.548;2023-04-25T08:53:39;3.60;;;1.88;;
68593;SDS011;55563;52.416;13.548;2023-04-25T08:55:56;4.57;;;2.22;;
68593;SDS011;55563;52.416;13.548;2023-04-25T08:58:15;5.68;;;2.10;;
68593;SDS011;55563;52.416;13.548;2023-04-25T09:00:31;7.22;;;2.20;;
68593;SDS011;55563;52.416;13.548;2023-04-25T09:02:46;3.85;;;2.08;;
68593;SDS011;55563;52.416;13.548;2023-04-25T09:05:01;3.72;;;1.73;;
68593;SDS011;55563;52.416;13.548;2023-04-25T09:07:16;5.63;;;2.08;;
68593;SDS011;55563;52.416;13.548;2023-04-25T09:09:35;3.83;;;1.73;;
68593;SDS011;55563;52.416;13.548;2023-04-25T09:11:48;6.65;;;1.80;;
68593;SDS011;55563;52.416;13.548;2023-04-25T09:14:20;5.72;;;1.63;;
68593;SDS011;55563;52.416;13.548;2023-04-25T09:19:32;3.65;;;1.60;;
68593;SDS011;55563;52.416;13.548;2023-04-25T09:22:07;3.83;;;1.60;;
68593;SDS011;55563;52.416;13.548;2023-04-25T09:27:03;3.17;;;1.50;;
68593;SDS011;55563;52.416;13.548;2023-04-25T09:29:36;2.90;;;1.48;;
68593;SDS011;55563;52.416;13.548;2023-04-25T09:31:46;5.55;;;1.55;;
68593;SDS011;55563;52.416;13.548;2023-04-25T09:36:37;3.25;;;1.70;;
68593;SDS011;55563;52.416;13.548;2023-04-25T09:39:12;3.85;;;1.48;;
68593;SDS011;55563;52.416;13.548;2023-04-25T09:41:53;3.22;;;1.25;;
68593;SDS011;55563;52.416;13.548;2023-04-25T09:44:24;4.20;;;1.40;;
68593;SDS011;55563;52.416;13.548;2023-04-25T09:46:52;7.47;;;1.45;;
68593;SDS011;55563;52.416;13.548;2023-04-25T09:49:20;5.20;;;1.63;;
68593;SDS011;55563;52.416;13.548;2023-04-25T09:51:35;4.65;;;1.55;;
68593;SDS011;55563;52.416;13.548;2023-04-25T09:53:57;5.82;;;1.60;;
68593;SDS011;55563;52.416;13.548;2023-04-25T09:56:10;3.60;;;1.10;;
68593;SDS011;55563;52.416;13.548;2023-04-25T09:58:32;3.35;;;1.52;;
68593;SDS011;55563;52.416;13.548;2023-04-25T10:00:41;4.10;;;1.20;;
68593;SDS011;55563;52.416;13.548;2023-04-25T10:03:14;3.50;;;1.02;;
68593;SDS011;55563;52.416;13.548;2023-04-25T10:05:34;3.90;;;1.45;;
68593;SDS011;55563;52.416;13.548;2023-04-25T10:07:58;3.13;;;1.27;;
68593;SDS011;55563;52.416;13.548;2023-04-25T10:10:09;5.45;;;1.55;;
68593;SDS011;55563;52.416;13.548;2023-04-25T10:12:33;4.88;;;1.48;;
68593;SDS011;55563;52.416;13.548;2023-04-25T10:15:08;3.65;;;1.38;;
68593;SDS011;55563;52.416;13.548;2023-04-25T10:17:30;4.15;;;1.60;;
68593;SDS011;55563;52.416;13.548;2023-04-25T10:19:38;5.80;;;1.42;;
68593;SDS011;55563;52.416;13.548;2023-04-25T10:22:03;3.80;;;1.60;;
68593;SDS011;55563;52.416;13.548;2023-04-25T10:24:20;4.28;;;1.48;;
68593;SDS011;55563;52.416;13.548;2023-04-25T10:26:35;3.60;;;1.27;;
68593;SDS011;55563;52.416;13.548;2023-04-25T10:29:04;6.43;;;1.58;;
68593;SDS011;55563;52.416;13.548;2023-04-25T10:31:18;3.13;;;1.20;;
68593;SDS011;55563;52.416;13.548;2023-04-25T10:33:36;3.15;;;1.17;;
68593;SDS011;55563;52.416;13.548;2023-04-25T10:35:58;3.20;;;1.05;;
68593;SDS011;55563;52.416;13.548;2023-04-25T10:38:13;3.38;;;1.15;;
68593;SDS011;55563;52.416;13.548;2023-04-25T10:40:28;9.73;;;1.67;;
68593;SDS011;55563;52.416;13.548;2023-04-25T10:42:42;3.97;;;1.15;;
68593;SDS011;55563;52.416;13.548;2023-04-25T10:45:11;5.55;;;1.35;;
68593;SDS011;55563;52.416;13.548;2023-04-25T10:47:34;4.90;;;1.30;;
68593;SDS011;55563;52.416;13.548;2023-04-25T10:49:49;3.33;;;1.35;;
68593;SDS011;55563;52.416;13.548;2023-04-25T10:52:36;3.05;;;1.15;;
68593;SDS011;55563;52.416;13.548;2023-04-25T10:54:47;5.75;;;1.95;;
68593;SDS011;55563;52.416;13.548;2023-04-25T10:57:06;3.13;;;1.40;;
68593;SDS011;55563;52.416;13.548;2023-04-25T10:59:20;3.50;;;1.60;;
68593;SDS011;55563;52.416;13.548;2023-04-25T11:01:40;3.97;;;1.50;;
68593;SDS011;55563;52.416;13.548;2023-04-25T11:04:02;5.15;;;1.60;;
68593;SDS011;55563;52.416;13.548;2023-04-25T11:06:12;8.18;;;2.55;;
68593;SDS011;55563;52.416;13.548;2023-04-25T11:08:50;3.58;;;1.25;;
68593;SDS011;55563;52.416;13.548;2023-04-25T11:11:04;4.35;;;1.33;;
68593;SDS011;55563;52.416;13.548;2023-04-25T11:13:28;4.15;;;1.80;;
68593;SDS011;55563;52.416;13.548;2023-04-25T11:15:37;4.82;;;1.80;;
68593;SDS011;55563;52.416;13.548;2023-04-25T11:17:58;4.40;;;1.30;;
68593;SDS011;55563;52.416;13.548;2023-04-25T11:20:05;3.10;;;1.50;;
68593;SDS011;55563;52.416;13.548;2023-04-25T11:22:27;3.03;;;1.13;;
68593;SDS011;55563;52.416;13.548;2023-04-25T11:24:34;5.03;;;1.52;;
68593;SDS011;55563;52.416;13.548;2023-04-25T11:26:57;3.08;;;1.40;;
68593;SDS011;55563;52.416;13.548;2023-04-25T11:29:05;4.28;;;1.60;;
68593;SDS011;55563;52.416;13.548;2023-04-25T11:33:40;1.20;;;0.95;;
68593;SDS011;55563;52.416;13.548;2023-04-25T11:36:01;1.77;;;1.05;;
68593;SDS011;55563;52.416;13.548;2023-04-25T11:38:08;3.72;;;1.30;;
68593;SDS011;55563;52.416;13.548;2023-04-25T11:40:29;3.05;;;1.40;;
68593;SDS011;55563;52.416;13.548;2023-04-25T11:42:37;3.00;;;1.10;;
68593;SDS011;55563;52.416;13.548;2023-04-25T11:44:59;3.33;;;1.17;;
68593;SDS011;55563;52.416;13.548;2023-04-25T11:47:06;3.13;;;1.10;;
68593;SDS011;55563;52.416;13.548;2023-04-25T11:51:45;2.13;;;1.15;;
68593;SDS011;55563;52.416;13.548;2023-04-25T11:54:00;3.85;;;1.13;;
68593;SDS011;55563;52.416;13.548;2023-04-25T11:56:14;2.72;;;1.10;;
68593;SDS011;55563;52.416;13.548;2023-04-25T11:58:53;1.88;;;0.82;;
68593;SDS011;55563;52.416;13.548;2023-04-25T12:01:01;4.28;;;1.52;;
68593;SDS011;55563;52.416;13.548;2023-04-25T12:05:32;2.60;;;1.13;;
68593;SDS011;55563;52.416;13.548;2023-04-25T12:10:08;3.10;;;0.95;;
68593;SDS011;55563;52.416;13.548;2023-04-25T12:12:37;1.05;;;0.80;;
68593;SDS011;55563;52.416;13.548;2023-04-25T12:14:47;2.42;;;1.00;;
68593;SDS011;55563;52.416;13.548;2023-04-25T12:17:09;4.32;;;1.10;;
68593;SDS011;55563;52.416;13.548;2023-04-25T12:19:18;2.70;;;1.00;;
68593;SDS011;55563;52.416;13.548;2023-04-25T12:21:40;1.85;;;0.93;;
68593;SDS011;55563;52.416;13.548;2023-04-25T12:26:15;2.45;;;0.98;;
68593;SDS011;55563;52.416;13.548;2023-04-25T12:28:26;5.50;;;1.50;;
68593;SDS011;55563;52.416;13.548;2023-04-25T12:31:04;2.95;;;1.05;;
68593;SDS011;55563;52.416;13.548;2023-04-25T12:33:12;3.72;;;1.38;;
68593;SDS011;55563;52.416;13.548;2023-04-25T12:35:33;3.17;;;1.27;;
68593;SDS011;55563;52.416;13.548;2023-04-25T12:37:40;1.75;;;0.90;;
68593;SDS011;55563;52.416;13.548;2023-04-25T12:40:01;3.13;;;0.88;;
68593;SDS011;55563;52.416;13.548;2023-04-25T12:44:29;3.42;;;1.17;;
68593;SDS011;55563;52.416;13.548;2023-04-25T12:46:37;3.58;;;1.25;;
68593;SDS011;55563;52.416;13.548;2023-04-25T12:48:58;2.03;;;0.85;;
68593;SDS011;55563;52.416;13.548;2023-04-25T12:53:33;2.47;;;0.98;;
68593;SDS011;55563;52.416;13.548;2023-04-25T12:56:01;2.92;;;1.20;;
68593;SDS011;55563;52.416;13.548;2023-04-25T12:58:08;3.00;;;1.00;;
68593;SDS011;55563;52.416;13.548;2023-04-25T13:00:29;2.05;;;0.90;;
68593;SDS011;55563;52.416;13.548;2023-04-25T13:02:37;2.30;;;0.90;;
68593;SDS011;55563;52.416;13.548;2023-04-25T13:05:05;2.95;;;1.13;;
68593;SDS011;55563;52.416;13.548;2023-04-25T13:09:33;1.75;;;1.02;;
68593;SDS011;55563;52.416;13.548;2023-04-25T13:14:08;3.75;;;1.40;;
68593;SDS011;55563;52.416;13.548;2023-04-25T13:16:36;2.53;;;1.20;;
68593;SDS011;55563;52.416;13.548;2023-04-25T13:18:43;2.40;;;1.10;;
68593;SDS011;55563;52.416;13.548;2023-04-25T13:21:04;2.67;;;1.00;;
68593;SDS011;55563;52.416;13.548;2023-04-25T13:23:11;2.10;;;1.08;;
68593;SDS011;55563;52.416;13.548;2023-04-25T13:25:32;1.73;;;0.70;;
68593;SDS011;55563;52.416;13.548;2023-04-25T13:27:39;4.03;;;1.10;;
68593;SDS011;55563;52.416;13.548;2023-04-25T13:30:00;3.35;;;1.00;;
68593;SDS011;55563;52.416;13.548;2023-04-25T13:32:18;3.70;;;1.13;;
68593;SDS011;55563;52.416;13.548;2023-04-25T13:34:32;6.40;;;1.25;;
68593;SDS011;55563;52.416;13.548;2023-04-25T13:36:46;3.70;;;1.13;;
68593;SDS011;55563;52.416;13.548;2023-04-25T13:39:07;1.42;;;0.77;;
68593;SDS011;55563;52.416;13.548;2023-04-25T13:41:14;1.10;;;0.80;;
68593;SDS011;55563;52.416;13.548;2023-04-25T13:43:35;2.42;;;1.00;;
68593;SDS011;55563;52.416;13.548;2023-04-25T13:45:42;2.28;;;1.00;;
68593;SDS011;55563;52.416;13.548;2023-04-25T13:50:10;4.07;;;1.00;;
68593;SDS011;55563;52.416;13.548;2023-04-25T13:52:31;2.30;;;0.98;;
68593;SDS011;55563;52.416;13.548;2023-04-25T13:54:38;2.83;;;1.00;;
68593;SDS011;55563;52.416;13.548;2023-04-25T13:59:13;1.52;;;0.93;;
68593;SDS011;55563;52.416;13.548;2023-04-25T14:01:34;3.35;;;1.00;;
68593;SDS011;55563;52.416;13.548;2023-04-25T14:03:42;2.15;;;0.98;;
68593;SDS011;55563;52.416;13.548;2023-04-25T14:08:11;1.42;;;0.82;;
68593;SDS011;55563;52.416;13.548;2023-04-25T14:10:32;3.67;;;0.90;;
68593;SDS011;55563;52.416;13.548;2023-04-25T14:12:39;4.32;;;1.10;;
68593;SDS011;55563;52.416;13.548;2023-04-25T14:15:00;1.55;;;1.00;;
68593;SDS011;55563;52.416;13.548;2023-04-25T14:17:08;0.82;;;0.70;;
68593;SDS011;55563;52.416;13.548;2023-04-25T14:19:36;3.10;;;0.93;;
68593;SDS011;55563;52.416;13.548;2023-04-25T14:21:45;3.38;;;1.20;;
68593;SDS011;55563;52.416;13.548;2023-04-25T14:24:08;1.85;;;0.90;;
68593;SDS011;55563;52.416;13.548;2023-04-25T14:26:15;5.85;;;1.10;;
68593;SDS011;55563;52.416;13.548;2023-04-25T14:28:36;2.38;;;1.00;;
68593;SDS011;55563;52.416;13.548;2023-04-25T14:30:43;3.55;;;1.10;;
68593;SDS011;55563;52.416;13.548;2023-04-25T14:33:04;4.00;;;1.20;;
68593;SDS011;55563;52.416;13.548;2023-04-25T14:37:32;4.90;;;1.10;;
68593;SDS011;55563;52.416;13.548;2023-04-25T14:39:40;3.25;;;0.82;;
68593;SDS011;55563;52.416;13.548;2023-04-25T14:42:00;1.52;;;0.80;;
68593;SDS011;55563;52.416;13.548;2023-04-25T14:44:07;1.25;;;0.82;;
68593;SDS011;55563;52.416;13.548;2023-04-25T14:46:28;1.38;;;0.70;;
68593;SDS011;55563;52.416;13.548;2023-04-25T14:50:56;1.30;;;0.80;;
68593;SDS011;55563;52.416;13.548;2023-04-25T14:55:31;0.85;;;0.70;;
68593;SDS011;55563;52.416;13.548;2023-04-25T14:58:12;2.83;;;1.92;;